sensor_id;sensor_type;location;lat;lon;timestamp;noise_LAeq;noise_LA_min;noise_LA_max;noise_LA01;noise_LA95
37163;Laerm;23057;48.554;14.454;2023-03-29T00:02:07;50.01;48.96;51.71;;
37163;Laerm;23057;48.554;14.454;2023-03-29T00:04:38;50.02;49.02;51.87;;
37163;Laerm;23057;48.554;14.454;2023-03-29T00:07:10;50.02;48.84;51.56;;
37163;Laerm;23057;48.554;14.454;2023-03-29T00:09:43;50.00;48.54;51.54;;
37163;Laerm;23057;48.554;14.454;2023-03-29T00:12:14;50.01;48.88;51.64;;
37163;Laerm;23057;48.554;14.454;2023-03-29T00:14:45;50.01;48.90;51.64;;
37163;Laerm;23057;48.554;14.454;2023-03-29T00:17:16;50.01;48.98;51.77;;
37163;Laerm;23057;48.554;14.454;2023-03-29T00:19:47;50.00;48.87;51.60;;
37163;Laerm;23057;48.554;14.454;2023-03-29T00:22:18;50.02;48.69;51.26;;
37163;Laerm;23057;48.554;14.454;2023-03-29T00:24:52;50.02;48.96;52.26;;
37163;Laerm;23057;48.554;14.454;2023-03-29T00:27:23;50.02;48.76;51.66;;
37163;Laerm;23057;48.554;14.454;2023-03-29T00:29:54;50.02;48.88;51.64;;
37163;Laerm;23057;48.554;14.454;2023-03-29T00:32:25;50.02;48.83;51.90;;
37163;Laerm;23057;48.554;14.454;2023-03-29T00:34:57;50.01;48.98;52.06;;
37163;Laerm;23057;48.554;14.454;2023-03-29T00:37:30;50.02;48.95;51.50;;
37163;Laerm;23057;48.554;14.454;2023-03-29T00:40:01;50.00;48.83;51.36;;
37163;Laerm;23057;48.554;14.454;2023-03-29T00:42:32;50.01;48.95;51.62;;
37163;Laerm;23057;48.554;14.454;2023-03-29T00:47:50;50.00;48.84;51.44;;
37163;Laerm;23057;48.554;14.454;2023-03-29T00:50:32;50.00;48.99;51.61;;
37163;Laerm;23057;48.554;14.454;2023-03-29T00:53:16;50.01;48.96;51.74;;
37163;Laerm;23057;48.554;14.454;2023-03-29T00:56:01;50.01;48.60;51.89;;
37163;Laerm;23057;48.554;14.454;2023-03-29T00:58:41;50.02;48.88;51.78;;
37163;Laerm;23057;48.554;14.454;2023-03-29T01:02:08;50.02;48.92;52.46;;
37163;Laerm;23057;48.554;14.454;2023-03-29T01:04:35;50.01;48.96;51.78;;
37163;Laerm;23057;48.554;14.454;2023-03-29T01:07:19;50.01;48.85;51.72;;
37163;Laerm;23057;48.554;14.454;2023-03-29T01:10:04;50.00;48.95;51.75;;
37163;Laerm;23057;48.554;14.454;2023-03-29T01:12:45;50.01;49.00;51.87;;
37163;Laerm;23057;48.554;14.454;2023-03-29T01:15:21;50.01;48.99;52.21;;
37163;Laerm;23057;48.554;14.454;2023-03-29T01:17:54;50.01;48.92;51.35;;
37163;Laerm;23057;48.554;14.454;2023-03-29T01:21:00;50.00;48.76;51.26;;
37163;Laerm;23057;48.554;14.454;2023-03-29T01:24:06;49.99;49.02;52.19;;
37163;Laerm;23057;48.554;14.454;2023-03-29T01:26:54;50.00;48.95;51.30;;
37163;Laerm;23057;48.554;14.454;2023-03-29T01:29:38;50.00;48.91;51.55;;
37163;Laerm;23057;48.554;14.454;2023-03-29T01:35:12;50.00;48.94;51.71;;
37163;Laerm;23057;48.554;14.454;2023-03-29T01:37:57;50.00;48.87;51.65;;
37163;Laerm;23057;48.554;14.454;2023-03-29T01:40:32;49.99;48.87;51.13;;
37163;Laerm;23057;48.554;14.454;2023-03-29T01:43:22;50.01;48.96;51.66;;
37163;Laerm;23057;48.554;14.454;2023-03-29T01:46:10;50.00;48.95;52.55;;
37163;Laerm;23057;48.554;14.454;2023-03-29T01:49:02;49.99;48.78;51.40;;
37163;Laerm;23057;48.554;14.454;2023-03-29T01:51:42;50.00;48.94;51.44;;
37163;Laerm;23057;48.554;14.454;2023-03-29T01:54:22;50.00;48.88;51.80;;
37163;Laerm;23057;48.554;14.454;2023-03-29T01:56:57;50.00;48.94;51.28;;
37163;Laerm;23057;48.554;14.454;2023-03-29T01:59:32;50.00;48.80;51.24;;
37163;Laerm;23057;48.554;14.454;2023-03-29T02:02:07;50.01;49.03;51.13;;
37163;Laerm;23057;48.554;14.454;2023-03-29T02:04:47;50.00;48.87;51.95;;
37163;Laerm;23057;48.554;14.454;2023-03-29T02:07:26;49.99;49.02;51.47;;
37163;Laerm;23057;48.554;14.454;2023-03-29T02:10:01;50.00;48.81;51.17;;
37163;Laerm;23057;48.554;14.454;2023-03-29T02:12:35;50.00;48.84;52.26;;
37163;Laerm;23057;48.554;14.454;2023-03-29T02:15:13;50.00;48.96;52.50;;
37163;Laerm;23057;48.554;14.454;2023-03-29T02:17:47;50.00;48.81;52.08;;
37163;Laerm;23057;48.554;14.454;2023-03-29T02:20:32;50.00;49.00;51.90;;
37163;Laerm;23057;48.554;14.454;2023-03-29T02:23:15;50.00;49.02;52.98;;
37163;Laerm;23057;48.554;14.454;2023-03-29T02:25:50;50.00;48.66;52.18;;
37163;Laerm;23057;48.554;14.454;2023-03-29T02:28:24;50.00;48.80;51.41;;
37163;Laerm;23057;48.554;14.454;2023-03-29T02:34:52;50.00;48.81;52.05;;
37163;Laerm;23057;48.554;14.454;2023-03-29T02:37:03;49.99;48.95;51.89;;
37163;Laerm;23057;48.554;14.454;2023-03-29T02:39:37;49.99;48.96;51.26;;
37163;Laerm;23057;48.554;14.454;2023-03-29T02:42:10;49.99;48.81;51.95;;
37163;Laerm;23057;48.554;14.454;2023-03-29T02:44:42;50.01;48.94;56.19;;
37163;Laerm;23057;48.554;14.454;2023-03-29T02:47:20;50.00;48.81;51.51;;
37163;Laerm;23057;48.554;14.454;2023-03-29T02:49:52;50.00;48.88;51.05;;
37163;Laerm;23057;48.554;14.454;2023-03-29T02:52:34;50.01;48.95;51.95;;
37163;Laerm;23057;48.554;14.454;2023-03-29T02:55:11;50.00;48.92;52.94;;
37163;Laerm;23057;48.554;14.454;2023-03-29T02:57:45;49.99;49.02;51.84;;
37163;Laerm;23057;48.554;14.454;2023-03-29T03:00:16;50.00;49.00;51.06;;
37163;Laerm;23057;48.554;14.454;2023-03-29T03:02:49;50.00;49.00;51.69;;
37163;Laerm;23057;48.554;14.454;2023-03-29T03:05:20;49.99;48.88;52.08;;
37163;Laerm;23057;48.554;14.454;2023-03-29T03:07:51;49.99;48.90;51.75;;
37163;Laerm;23057;48.554;14.454;2023-03-29T03:10:22;49.99;48.96;51.47;;
37163;Laerm;23057;48.554;14.454;2023-03-29T03:12:52;49.99;49.11;51.08;;
37163;Laerm;23057;48.554;14.454;2023-03-29T03:15:24;49.99;48.95;52.05;;
37163;Laerm;23057;48.554;14.454;2023-03-29T03:17:55;50.00;48.92;51.35;;
37163;Laerm;23057;48.554;14.454;2023-03-29T03:20:26;50.00;48.84;51.66;;
37163;Laerm;23057;48.554;14.454;2023-03-29T03:22:57;49.99;48.91;52.57;;
37163;Laerm;23057;48.554;14.454;2023-03-29T03:25:28;49.99;48.69;51.81;;
37163;Laerm;23057;48.554;14.454;2023-03-29T03:27:59;50.00;48.85;51.28;;
37163;Laerm;23057;48.554;14.454;2023-03-29T03:30:30;49.98;48.83;51.95;;
37163;Laerm;23057;48.554;14.454;2023-03-29T03:33:01;49.99;48.69;51.50;;
37163;Laerm;23057;48.554;14.454;2023-03-29T03:35:32;49.99;48.91;51.85;;
37163;Laerm;23057;48.554;14.454;2023-03-29T03:38:03;49.98;48.94;51.13;;
37163;Laerm;23057;48.554;14.454;2023-03-29T03:40:35;49.99;48.96;52.01;;
37163;Laerm;23057;48.554;14.454;2023-03-29T03:43:06;49.99;48.87;51.59;;
37163;Laerm;23057;48.554;14.454;2023-03-29T03:45:37;49.98;48.91;52.29;;
37163;Laerm;23057;48.554;14.454;2023-03-29T03:48:08;49.98;48.92;51.57;;
37163;Laerm;23057;48.554;14.454;2023-03-29T03:50:39;49.98;48.67;51.88;;
37163;Laerm;23057;48.554;14.454;2023-03-29T03:53:09;49.99;48.96;51.76;;
37163;Laerm;23057;48.554;14.454;2023-03-29T03:55:40;49.99;48.95;52.26;;
37163;Laerm;23057;48.554;14.454;2023-03-29T03:58:12;49.99;48.95;51.31;;
37163;Laerm;23057;48.554;14.454;2023-03-29T04:00:43;49.99;48.90;51.33;;
37163;Laerm;23057;48.554;14.454;2023-03-29T04:03:15;49.98;48.96;51.21;;
37163;Laerm;23057;48.554;14.454;2023-03-29T04:05:46;49.98;48.88;52.09;;
37163;Laerm;23057;48.554;14.454;2023-03-29T04:08:18;49.99;48.98;51.75;;
37163;Laerm;23057;48.554;14.454;2023-03-29T04:10:54;49.99;48.87;51.05;;
37163;Laerm;23057;48.554;14.454;2023-03-29T04:13:25;49.99;49.06;51.34;;
37163;Laerm;23057;48.554;14.454;2023-03-29T04:15:56;49.98;48.87;51.77;;
37163;Laerm;23057;48.554;14.454;2023-03-29T04:18:27;49.98;48.90;51.56;;
37163;Laerm;23057;48.554;14.454;2023-03-29T04:20:58;49.98;48.80;51.77;;
37163;Laerm;23057;48.554;14.454;2023-03-29T04:23:29;49.99;48.66;52.16;;
37163;Laerm;23057;48.554;14.454;2023-03-29T04:25:59;49.98;48.94;51.97;;
37163;Laerm;23057;48.554;14.454;2023-03-29T04:28:30;49.99;48.83;51.67;;
37163;Laerm;23057;48.554;14.454;2023-03-29T04:31:01;49.99;48.84;51.67;;
37163;Laerm;23057;48.554;14.454;2023-03-29T04:33:32;49.98;49.06;52.67;;
37163;Laerm;23057;48.554;14.454;2023-03-29T04:36:04;49.99;48.92;52.35;;
37163;Laerm;23057;48.554;14.454;2023-03-29T04:38:35;49.99;48.98;51.42;;
37163;Laerm;23057;48.554;14.454;2023-03-29T04:41:05;49.97;48.87;51.95;;
37163;Laerm;23057;48.554;14.454;2023-03-29T04:43:37;49.98;48.92;52.04;;
37163;Laerm;23057;48.554;14.454;2023-03-29T04:46:07;49.98;48.96;51.78;;
37163;Laerm;23057;48.554;14.454;2023-03-29T04:48:38;49.99;49.03;51.89;;
37163;Laerm;23057;48.554;14.454;2023-03-29T04:51:09;49.98;48.92;50.97;;
37163;Laerm;23057;48.554;14.454;2023-03-29T04:53:41;49.98;48.66;52.01;;
37163;Laerm;23057;48.554;14.454;2023-03-29T04:56:11;49.99;48.85;52.92;;
37163;Laerm;23057;48.554;14.454;2023-03-29T04:58:42;49.98;48.95;52.60;;
37163;Laerm;23057;48.554;14.454;2023-03-29T05:01:14;49.98;48.95;52.31;;
37163;Laerm;23057;48.554;14.454;2023-03-29T05:03:45;49.99;49.00;52.29;;
37163;Laerm;23057;48.554;14.454;2023-03-29T05:06:15;49.98;48.81;51.27;;
37163;Laerm;23057;48.554;14.454;2023-03-29T05:08:46;49.99;48.94;51.87;;
37163;Laerm;23057;48.554;14.454;2023-03-29T05:11:17;49.99;48.83;52.04;;
37163;Laerm;23057;48.554;14.454;2023-03-29T05:13:49;49.98;48.94;52.21;;
37163;Laerm;23057;48.554;14.454;2023-03-29T05:16:20;49.98;49.02;51.67;;
37163;Laerm;23057;48.554;14.454;2023-03-29T05:18:50;49.98;48.92;51.95;;
37163;Laerm;23057;48.554;14.454;2023-03-29T05:21:21;49.97;48.92;52.63;;
37163;Laerm;23057;48.554;14.454;2023-03-29T05:23:54;49.98;48.80;52.11;;
37163;Laerm;23057;48.554;14.454;2023-03-29T05:26:24;50.00;48.88;52.02;;
37163;Laerm;23057;48.554;14.454;2023-03-29T05:28:56;49.99;48.91;52.11;;
37163;Laerm;23057;48.554;14.454;2023-03-29T05:31:26;49.99;48.87;51.34;;
37163;Laerm;23057;48.554;14.454;2023-03-29T05:33:57;49.98;48.96;52.21;;
37163;Laerm;23057;48.554;14.454;2023-03-29T05:36:28;49.98;49.00;51.22;;
37163;Laerm;23057;48.554;14.454;2023-03-29T05:38:59;49.97;48.90;51.57;;
37163;Laerm;23057;48.554;14.454;2023-03-29T05:41:29;49.98;48.88;51.19;;
37163;Laerm;23057;48.554;14.454;2023-03-29T05:44:00;49.97;48.96;51.67;;
37163;Laerm;23057;48.554;14.454;2023-03-29T05:46:31;49.98;48.69;51.20;;
37163;Laerm;23057;48.554;14.454;2023-03-29T05:49:02;49.99;48.84;52.03;;
37163;Laerm;23057;48.554;14.454;2023-03-29T05:51:33;49.98;48.76;52.21;;
37163;Laerm;23057;48.554;14.454;2023-03-29T05:54:04;49.97;48.87;51.59;;
37163;Laerm;23057;48.554;14.454;2023-03-29T05:56:36;50.00;49.03;52.55;;
37163;Laerm;23057;48.554;14.454;2023-03-29T05:59:07;49.97;48.87;51.67;;
37163;Laerm;23057;48.554;14.454;2023-03-29T06:01:38;49.97;49.02;51.47;;
37163;Laerm;23057;48.554;14.454;2023-03-29T06:04:09;49.97;48.84;52.54;;
37163;Laerm;23057;48.554;14.454;2023-03-29T06:06:41;49.97;48.52;51.71;;
37163;Laerm;23057;48.554;14.454;2023-03-29T06:09:12;49.97;49.02;51.28;;
37163;Laerm;23057;48.554;14.454;2023-03-29T06:11:43;49.98;48.70;51.97;;
37163;Laerm;23057;48.554;14.454;2023-03-29T06:14:14;49.98;48.96;52.29;;
37163;Laerm;23057;48.554;14.454;2023-03-29T06:16:45;49.98;48.95;51.90;;
37163;Laerm;23057;48.554;14.454;2023-03-29T06:19:16;49.97;48.95;51.95;;
37163;Laerm;23057;48.554;14.454;2023-03-29T06:21:48;49.98;48.81;54.46;;
37163;Laerm;23057;48.554;14.454;2023-03-29T06:24:19;49.97;48.94;51.45;;
37163;Laerm;23057;48.554;14.454;2023-03-29T06:26:50;49.97;48.76;52.33;;
37163;Laerm;23057;48.554;14.454;2023-03-29T06:29:21;49.97;48.76;52.57;;
37163;Laerm;23057;48.554;14.454;2023-03-29T06:31:53;49.97;48.84;51.60;;
37163;Laerm;23057;48.554;14.454;2023-03-29T06:34:24;49.97;48.57;51.89;;
37163;Laerm;23057;48.554;14.454;2023-03-29T06:36:54;49.97;48.95;51.44;;
37163;Laerm;23057;48.554;14.454;2023-03-29T06:39:25;49.97;48.70;51.44;;
37163;Laerm;23057;48.554;14.454;2023-03-29T06:41:56;49.97;48.92;51.16;;
37163;Laerm;23057;48.554;14.454;2023-03-29T06:44:27;49.97;48.85;51.96;;
37163;Laerm;23057;48.554;14.454;2023-03-29T06:46:58;49.97;48.88;51.37;;
37163;Laerm;23057;48.554;14.454;2023-03-29T06:49:29;49.98;48.88;51.80;;
37163;Laerm;23057;48.554;14.454;2023-03-29T06:52:00;49.97;48.96;51.33;;
37163;Laerm;23057;48.554;14.454;2023-03-29T06:54:30;49.97;48.95;51.63;;
37163;Laerm;23057;48.554;14.454;2023-03-29T06:57:03;49.96;48.80;53.13;;
37163;Laerm;23057;48.554;14.454;2023-03-29T06:59:34;49.96;48.69;52.41;;
37163;Laerm;23057;48.554;14.454;2023-03-29T07:02:05;49.95;48.91;51.76;;
37163;Laerm;23057;48.554;14.454;2023-03-29T07:04:37;49.95;48.90;52.33;;
37163;Laerm;23057;48.554;14.454;2023-03-29T07:07:08;49.96;48.80;52.49;;
37163;Laerm;23057;48.554;14.454;2023-03-29T07:09:49;49.95;48.73;51.69;;
37163;Laerm;23057;48.554;14.454;2023-03-29T07:12:23;49.96;48.91;51.70;;
37163;Laerm;23057;48.554;14.454;2023-03-29T07:14:54;49.96;48.95;51.73;;
37163;Laerm;23057;48.554;14.454;2023-03-29T07:17:24;49.95;48.90;52.35;;
37163;Laerm;23057;48.554;14.454;2023-03-29T07:19:55;49.95;48.71;51.08;;
37163;Laerm;23057;48.554;14.454;2023-03-29T07:22:26;49.97;48.95;52.11;;
37163;Laerm;23057;48.554;14.454;2023-03-29T07:24:57;49.97;48.85;51.04;;
37163;Laerm;23057;48.554;14.454;2023-03-29T07:27:29;49.98;48.83;51.48;;
37163;Laerm;23057;48.554;14.454;2023-03-29T07:30:00;49.98;48.81;51.40;;
37163;Laerm;23057;48.554;14.454;2023-03-29T07:32:31;49.98;49.04;51.32;;
37163;Laerm;23057;48.554;14.454;2023-03-29T07:35:07;49.98;48.92;52.59;;
37163;Laerm;23057;48.554;14.454;2023-03-29T07:37:39;49.97;48.96;52.23;;
37163;Laerm;23057;48.554;14.454;2023-03-29T07:40:16;49.98;48.95;51.26;;
37163;Laerm;23057;48.554;14.454;2023-03-29T07:42:55;49.97;48.92;51.81;;
37163;Laerm;23057;48.554;14.454;2023-03-29T07:45:26;49.98;48.73;52.19;;
37163;Laerm;23057;48.554;14.454;2023-03-29T07:48:00;49.97;48.90;52.11;;
37163;Laerm;23057;48.554;14.454;2023-03-29T07:50:31;49.96;48.76;51.44;;
37163;Laerm;23057;48.554;14.454;2023-03-29T07:53:02;49.96;48.83;51.33;;
37163;Laerm;23057;48.554;14.454;2023-03-29T07:55:33;49.96;48.95;52.24;;
37163;Laerm;23057;48.554;14.454;2023-03-29T07:58:03;49.96;48.88;52.81;;
37163;Laerm;23057;48.554;14.454;2023-03-29T08:00:37;49.96;48.74;50.97;;
37163;Laerm;23057;48.554;14.454;2023-03-29T08:03:11;49.96;48.83;51.30;;
37163;Laerm;23057;48.554;14.454;2023-03-29T08:05:42;49.96;48.78;52.18;;
37163;Laerm;23057;48.554;14.454;2023-03-29T08:08:13;49.96;48.80;51.58;;
37163;Laerm;23057;48.554;14.454;2023-03-29T08:10:44;49.95;48.95;53.03;;
37163;Laerm;23057;48.554;14.454;2023-03-29T08:13:15;49.96;48.78;53.16;;
37163;Laerm;23057;48.554;14.454;2023-03-29T08:15:46;49.96;48.57;51.81;;
37163;Laerm;23057;48.554;14.454;2023-03-29T08:18:18;49.96;48.92;51.76;;
37163;Laerm;23057;48.554;14.454;2023-03-29T08:20:49;49.95;48.81;51.67;;
37163;Laerm;23057;48.554;14.454;2023-03-29T08:23:20;49.95;48.80;51.65;;
37163;Laerm;23057;48.554;14.454;2023-03-29T08:25:51;49.95;48.83;52.23;;
37163;Laerm;23057;48.554;14.454;2023-03-29T08:28:21;49.94;48.99;51.47;;
37163;Laerm;23057;48.554;14.454;2023-03-29T08:30:52;49.96;48.81;51.76;;
37163;Laerm;23057;48.554;14.454;2023-03-29T08:33:23;49.97;48.89;51.98;;
37163;Laerm;23057;48.554;14.454;2023-03-29T08:35:54;49.96;48.73;52.42;;
37163;Laerm;23057;48.554;14.454;2023-03-29T08:38:25;49.96;48.84;51.57;;
37163;Laerm;23057;48.554;14.454;2023-03-29T08:40:56;49.96;48.91;51.03;;
37163;Laerm;23057;48.554;14.454;2023-03-29T08:43:52;49.96;48.91;52.90;;
37163;Laerm;23057;48.554;14.454;2023-03-29T08:46:42;49.96;48.91;52.73;;
37163;Laerm;23057;48.554;14.454;2023-03-29T08:49:14;49.97;48.84;52.54;;
37163;Laerm;23057;48.554;14.454;2023-03-29T08:51:51;49.97;48.77;52.11;;
37163;Laerm;23057;48.554;14.454;2023-03-29T08:54:35;49.95;48.96;51.91;;
37163;Laerm;23057;48.554;14.454;2023-03-29T08:57:28;49.95;48.73;51.50;;
37163;Laerm;23057;48.554;14.454;2023-03-29T09:00:04;49.95;48.81;51.62;;
37163;Laerm;23057;48.554;14.454;2023-03-29T09:02:36;49.95;48.78;51.59;;
37163;Laerm;23057;48.554;14.454;2023-03-29T09:05:32;49.95;48.71;51.96;;
37163;Laerm;23057;48.554;14.454;2023-03-29T09:08:12;49.96;48.78;53.03;;
37163;Laerm;23057;48.554;14.454;2023-03-29T09:17:01;49.93;48.77;52.68;;
37163;Laerm;23057;48.554;14.454;2023-03-29T09:19:50;49.95;48.80;52.31;;
37163;Laerm;23057;48.554;14.454;2023-03-29T09:22:58;49.93;48.76;51.83;;
37163;Laerm;23057;48.554;14.454;2023-03-29T09:25:53;49.94;48.61;51.94;;
37163;Laerm;23057;48.554;14.454;2023-03-29T09:31:29;49.95;48.90;51.15;;
37163;Laerm;23057;48.554;14.454;2023-03-29T09:34:20;49.95;48.81;52.55;;
37163;Laerm;23057;48.554;14.454;2023-03-29T09:36:57;49.94;48.80;52.51;;
37163;Laerm;23057;48.554;14.454;2023-03-29T09:39:30;49.94;48.85;51.60;;
37163;Laerm;23057;48.554;14.454;2023-03-29T09:42:06;49.95;48.84;51.20;;
37163;Laerm;23057;48.554;14.454;2023-03-29T09:44:50;49.95;48.96;51.52;;
37163;Laerm;23057;48.554;14.454;2023-03-29T09:47:27;49.94;48.78;51.70;;
37163;Laerm;23057;48.554;14.454;2023-03-29T09:50:09;49.95;48.90;51.85;;
37163;Laerm;23057;48.554;14.454;2023-03-29T09:52:43;49.95;48.96;51.59;;
37163;Laerm;23057;48.554;14.454;2023-03-29T09:55:16;49.94;48.81;51.43;;
37163;Laerm;23057;48.554;14.454;2023-03-29T09:57:48;49.93;48.98;51.22;;
37163;Laerm;23057;48.554;14.454;2023-03-29T10:00:19;49.93;48.77;50.94;;
37163;Laerm;23057;48.554;14.454;2023-03-29T10:02:56;49.92;48.94;51.38;;
37163;Laerm;23057;48.554;14.454;2023-03-29T10:05:31;49.93;48.87;52.09;;
37163;Laerm;23057;48.554;14.454;2023-03-29T10:08:38;49.92;48.88;51.69;;
37163;Laerm;23057;48.554;14.454;2023-03-29T10:11:24;49.92;48.60;51.11;;
37163;Laerm;23057;48.554;14.454;2023-03-29T10:14:19;49.92;48.74;51.82;;
37163;Laerm;23057;48.554;14.454;2023-03-29T10:16:56;49.92;48.63;51.22;;
37163;Laerm;23057;48.554;14.454;2023-03-29T10:19:31;49.92;48.61;51.29;;
37163;Laerm;23057;48.554;14.454;2023-03-29T10:22:14;49.91;48.74;51.78;;
37163;Laerm;23057;48.554;14.454;2023-03-29T10:24:49;49.91;48.71;51.75;;
37163;Laerm;23057;48.554;14.454;2023-03-29T10:27:26;49.91;48.81;51.83;;
37163;Laerm;23057;48.554;14.454;2023-03-29T10:29:59;49.90;48.63;51.41;;
37163;Laerm;23057;48.554;14.454;2023-03-29T10:32:38;49.90;48.90;51.60;;
37163;Laerm;23057;48.554;14.454;2023-03-29T10:35:38;49.90;48.85;51.94;;
37163;Laerm;23057;48.554;14.454;2023-03-29T10:38:23;49.90;48.72;52.10;;
37163;Laerm;23057;48.554;14.454;2023-03-29T10:41:11;49.89;48.81;51.55;;
37163;Laerm;23057;48.554;14.454;2023-03-29T10:43:49;49.91;48.84;52.15;;
37163;Laerm;23057;48.554;14.454;2023-03-29T10:46:27;49.91;48.76;51.42;;
37163;Laerm;23057;48.554;14.454;2023-03-29T10:49:02;49.90;48.87;51.51;;
37163;Laerm;23057;48.554;14.454;2023-03-29T10:51:35;49.91;48.64;51.76;;
37163;Laerm;23057;48.554;14.454;2023-03-29T10:54:13;49.93;48.85;52.76;;
37163;Laerm;23057;48.554;14.454;2023-03-29T11:02:33;49.91;48.74;51.80;;
37163;Laerm;23057;48.554;14.454;2023-03-29T11:05:26;49.91;49.02;51.94;;
37163;Laerm;23057;48.554;14.454;2023-03-29T11:08:08;49.91;48.84;51.38;;
37163;Laerm;23057;48.554;14.454;2023-03-29T11:14:40;49.91;48.87;51.77;;
37163;Laerm;23057;48.554;14.454;2023-03-29T11:23:03;49.90;48.83;51.50;;
37163;Laerm;23057;48.554;14.454;2023-03-29T11:25:52;49.89;48.94;51.70;;
37163;Laerm;23057;48.554;14.454;2023-03-29T11:29:01;49.90;48.83;51.77;;
37163;Laerm;23057;48.554;14.454;2023-03-29T11:31:56;49.89;48.77;51.49;;
37163;Laerm;23057;48.554;14.454;2023-03-29T11:35:07;49.90;48.61;52.08;;
37163;Laerm;23057;48.554;14.454;2023-03-29T11:43:33;49.88;48.88;52.75;;
37163;Laerm;23057;48.554;14.454;2023-03-29T11:48:59;49.88;49.00;51.35;;
37163;Laerm;23057;48.554;14.454;2023-03-29T11:54:40;49.87;48.60;51.65;;
37163;Laerm;23057;48.554;14.454;2023-03-29T11:57:37;49.88;48.70;52.01;;
37163;Laerm;23057;48.554;14.454;2023-03-29T12:00:52;49.87;48.92;51.61;;
37163;Laerm;23057;48.554;14.454;2023-03-29T12:06:25;49.88;48.94;51.15;;
37163;Laerm;23057;48.554;14.454;2023-03-29T12:09:14;49.88;48.88;51.13;;
37163;Laerm;23057;48.554;14.454;2023-03-29T12:12:18;49.87;48.70;51.13;;
37163;Laerm;23057;48.554;14.454;2023-03-29T12:14:57;49.87;48.71;51.53;;
37163;Laerm;23057;48.554;14.454;2023-03-29T12:17:43;49.86;48.83;51.76;;
37163;Laerm;23057;48.554;14.454;2023-03-29T12:20:29;49.86;48.74;51.12;;
37163;Laerm;23057;48.554;14.454;2023-03-29T12:23:07;49.85;48.87;51.06;;
37163;Laerm;23057;48.554;14.454;2023-03-29T12:25:52;49.85;48.80;51.53;;
37163;Laerm;23057;48.554;14.454;2023-03-29T12:40:44;49.84;48.85;50.96;;
37163;Laerm;23057;48.554;14.454;2023-03-29T12:43:35;49.84;48.67;51.46;;
37163;Laerm;23057;48.554;14.454;2023-03-29T12:46:17;49.84;48.77;52.17;;
37163;Laerm;23057;48.554;14.454;2023-03-29T12:48:57;49.84;48.84;51.37;;
37163;Laerm;23057;48.554;14.454;2023-03-29T12:51:38;49.83;48.69;50.86;;
37163;Laerm;23057;48.554;14.454;2023-03-29T12:54:17;49.83;48.61;51.72;;
37163;Laerm;23057;48.554;14.454;2023-03-29T12:57:01;49.82;48.80;50.91;;
37163;Laerm;23057;48.554;14.454;2023-03-29T12:59:48;49.82;48.71;50.98;;
37163;Laerm;23057;48.554;14.454;2023-03-29T13:02:34;49.82;48.81;52.69;;
37163;Laerm;23057;48.554;14.454;2023-03-29T13:05:34;49.81;48.46;51.20;;
37163;Laerm;23057;48.554;14.454;2023-03-29T13:08:25;49.81;48.78;51.13;;
37163;Laerm;23057;48.554;14.454;2023-03-29T13:10:57;49.82;48.55;51.19;;
37163;Laerm;23057;48.554;14.454;2023-03-29T13:13:39;49.83;48.69;51.80;;
37163;Laerm;23057;48.554;14.454;2023-03-29T13:16:17;49.83;48.70;50.85;;
37163;Laerm;23057;48.554;14.454;2023-03-29T13:19:16;49.83;48.76;52.08;;
37163;Laerm;23057;48.554;14.454;2023-03-29T13:30:56;49.83;48.57;51.80;;
37163;Laerm;23057;48.554;14.454;2023-03-29T13:39:33;49.81;48.63;51.37;;
37163;Laerm;23057;48.554;14.454;2023-03-29T13:42:38;49.80;48.74;51.07;;
37163;Laerm;23057;48.554;14.454;2023-03-29T13:45:25;49.80;48.63;51.69;;
37163;Laerm;23057;48.554;14.454;2023-03-29T13:54:02;49.81;48.84;51.52;;
37163;Laerm;23057;48.554;14.454;2023-03-29T13:57:04;49.80;48.78;51.10;;
37163;Laerm;23057;48.554;14.454;2023-03-29T14:00:15;49.80;48.73;51.25;;
37163;Laerm;23057;48.554;14.454;2023-03-29T14:02:54;49.80;48.76;51.60;;
37163;Laerm;23057;48.554;14.454;2023-03-29T14:05:51;49.79;48.78;51.80;;
37163;Laerm;23057;48.554;14.454;2023-03-29T14:08:32;49.78;48.60;50.85;;
37163;Laerm;23057;48.554;14.454;2023-03-29T14:11:17;49.80;48.81;50.91;;
37163;Laerm;23057;48.554;14.454;2023-03-29T14:13:54;49.79;48.73;51.06;;
37163;Laerm;23057;48.554;14.454;2023-03-29T14:16:36;49.79;48.60;51.13;;
37163;Laerm;23057;48.554;14.454;2023-03-29T14:19:16;49.79;48.73;50.91;;
37163;Laerm;23057;48.554;14.454;2023-03-29T14:21:49;49.80;48.61;51.06;;
37163;Laerm;23057;48.554;14.454;2023-03-29T14:24:25;49.81;48.71;53.94;;
37163;Laerm;23057;48.554;14.454;2023-03-29T14:26:57;49.80;48.69;51.30;;
37163;Laerm;23057;48.554;14.454;2023-03-29T14:29:32;49.80;48.63;51.33;;
37163;Laerm;23057;48.554;14.454;2023-03-29T14:32:15;49.79;48.70;51.01;;
37163;Laerm;23057;48.554;14.454;2023-03-29T14:34:48;49.80;48.76;51.74;;
37163;Laerm;23057;48.554;14.454;2023-03-29T14:37:26;49.79;48.71;50.97;;
37163;Laerm;23057;48.554;14.454;2023-03-29T14:39:58;49.80;48.60;51.37;;
37163;Laerm;23057;48.554;14.454;2023-03-29T14:42:29;49.79;48.77;51.02;;
37163;Laerm;23057;48.554;14.454;2023-03-29T14:45:05;49.80;48.43;55.07;;
37163;Laerm;23057;48.554;14.454;2023-03-29T14:47:37;49.79;48.71;50.82;;
37163;Laerm;23057;48.554;14.454;2023-03-29T14:50:26;49.80;48.69;51.06;;
37163;Laerm;23057;48.554;14.454;2023-03-29T14:52:58;49.79;48.58;50.95;;
37163;Laerm;23057;48.554;14.454;2023-03-29T14:55:31;49.78;48.32;51.67;;
37163;Laerm;23057;48.554;14.454;2023-03-29T14:58:02;49.79;48.70;51.33;;
37163;Laerm;23057;48.554;14.454;2023-03-29T15:00:39;49.79;48.66;50.87;;
37163;Laerm;23057;48.554;14.454;2023-03-29T15:03:14;49.79;48.71;51.52;;
37163;Laerm;23057;48.554;14.454;2023-03-29T15:06:09;49.80;48.74;51.21;;
37163;Laerm;23057;48.554;14.454;2023-03-29T15:08:43;49.80;48.69;51.29;;
37163;Laerm;23057;48.554;14.454;2023-03-29T15:11:21;49.80;48.51;51.06;;
37163;Laerm;23057;48.554;14.454;2023-03-29T15:14:14;49.80;48.71;51.44;;
37163;Laerm;23057;48.554;14.454;2023-03-29T15:16:49;49.82;48.71;51.33;;
37163;Laerm;23057;48.554;14.454;2023-03-29T15:19:24;49.81;48.69;50.92;;
37163;Laerm;23057;48.554;14.454;2023-03-29T15:21:55;49.81;48.84;51.14;;
37163;Laerm;23057;48.554;14.454;2023-03-29T15:24:32;49.81;48.74;51.56;;
37163;Laerm;23057;48.554;14.454;2023-03-29T15:27:16;49.81;48.88;51.08;;
37163;Laerm;23057;48.554;14.454;2023-03-29T15:29:47;49.80;48.73;50.86;;
37163;Laerm;23057;48.554;14.454;2023-03-29T15:32:24;49.81;48.70;51.76;;
37163;Laerm;23057;48.554;14.454;2023-03-29T15:35:04;49.81;48.80;51.59;;
37163;Laerm;23057;48.554;14.454;2023-03-29T15:37:38;49.82;48.61;50.78;;
37163;Laerm;23057;48.554;14.454;2023-03-29T15:40:25;49.80;48.74;50.94;;
37163;Laerm;23057;48.554;14.454;2023-03-29T15:42:57;49.82;48.84;50.92;;
37163;Laerm;23057;48.554;14.454;2023-03-29T15:45:28;49.83;48.57;51.94;;
37163;Laerm;23057;48.554;14.454;2023-03-29T15:47:59;49.82;48.67;51.42;;